Time;durP1;ratioP1;P1;durP2;ratioP2;P2;SDS_P1;SDS_P2;PMS_P1;PMS_P2;Temp;Humidity;BMP_temperature;BMP_pressure;BME280_temperature;BME280_humidity;BME280_pressure;Samples;Min_cycle;Max_cycle;Signal;HPM_P1;HPM_P2
2022/09/09 00:02:01;;;;;;;;;;;15.50;99.90;;;;;;5076969;28;19909;-84
2022/09/09 00:04:28;;;;;;;;;;;15.50;99.90;;;;;;5081038;28;19912;-86
2022/09/09 00:07:12;;;;;;;;;;;15.50;99.90;;;;;;5079912;28;19924;-88
2022/09/09 00:10:00;;;;;;;;;;;15.50;99.90;;;;;;5079119;28;19912;-83
2022/09/09 00:12:34;;;;;;;;;;;15.40;99.90;;;;;;5081023;28;19908;-86
2022/09/09 00:15:07;;;;;;;;;;;15.40;99.90;;;;;;5086180;28;19966;-85
2022/09/09 00:17:43;;;;;;;;;;;15.40;99.90;;;;;;5083814;28;19927;-84
2022/09/09 00:20:14;;;;;;;;;;;15.40;99.90;;;;;;5086573;28;19954;-83
2022/09/09 00:22:42;;;;;;;;;;;15.40;99.90;;;;;;5078508;28;19917;-84
2022/09/09 00:25:15;;;;;;;;;;;15.30;99.90;;;;;;5078002;28;19916;-84
2022/09/09 00:27:48;;;;;;;;;;;15.30;99.90;;;;;;5080436;28;20457;-84
2022/09/09 00:30:22;;;;;;;;;;;15.40;99.90;;;;;;5080173;28;19965;-80
2022/09/09 00:32:48;;;;;;;;;;;15.30;99.90;;;;;;5081789;28;20439;-83
2022/09/09 00:35:31;;;;;;;;;;;15.30;99.90;;;;;;5080894;28;20382;-80
2022/09/09 00:38:00;;;;;;;;;;;15.40;99.90;;;;;;5079127;28;19924;-84
2022/09/09 00:40:31;;;;;;;;;;;15.30;99.90;;;;;;5077778;28;19912;-83
2022/09/09 00:43:06;;;;;;;;;;;15.40;99.90;;;;;;5085737;28;20066;-84
2022/09/09 00:45:35;;;;;;;;;;;15.40;99.90;;;;;;5085341;28;20004;-82
2022/09/09 00:48:05;;;;;;;;;;;15.30;99.90;;;;;;5079183;28;19958;-82
2022/09/09 00:50:49;;;;;;;;;;;15.30;99.90;;;;;;5079870;28;19969;-80
2022/09/09 00:53:33;;;;;;;;;;;15.30;99.90;;;;;;5079565;28;19943;-79
2022/09/09 00:56:11;;;;;;;;;;;15.30;99.90;;;;;;5079022;28;19954;-82
2022/09/09 00:58:37;;;;;;;;;;;15.30;99.90;;;;;;5080260;28;19919;-81
2022/09/09 01:01:06;;;;;;;;;;;15.30;99.90;;;;;;5078240;28;20258;-80
2022/09/09 01:03:32;;;;;;;;;;;15.30;99.90;;;;;;5078812;28;20388;-80
2022/09/09 01:06:12;;;;;;;;;;;15.30;99.90;;;;;;5078698;28;19912;-80
2022/09/09 01:08:56;;;;;;;;;;;15.30;99.90;;;;;;5077459;28;19935;-81
2022/09/09 01:11:27;;;;;;;;;;;15.30;99.90;;;;;;5079055;28;19908;-81
2022/09/09 01:13:55;;;;;;;;;;;15.30;99.90;;;;;;5078114;28;19909;-82
2022/09/09 01:16:21;;;;;;;;;;;15.30;99.90;;;;;;5077259;28;19909;-83
2022/09/09 01:18:49;;;;;;;;;;;15.30;99.90;;;;;;5079496;28;20392;-82
2022/09/09 01:21:27;;;;;;;;;;;15.30;99.90;;;;;;5078478;28;19944;-82
2022/09/09 01:24:11;;;;;;;;;;;15.30;99.90;;;;;;5078185;28;19916;-81
2022/09/09 01:26:39;;;;;;;;;;;15.30;99.90;;;;;;5079382;28;19917;-81
2022/09/09 01:29:08;;;;;;;;;;;15.30;99.90;;;;;;5079752;28;19916;-83
2022/09/09 01:31:40;;;;;;;;;;;15.30;99.90;;;;;;5078184;28;19948;-83
2022/09/09 01:34:13;;;;;;;;;;;15.30;99.90;;;;;;5080745;28;19909;-83
2022/09/09 01:36:57;;;;;;;;;;;15.30;99.90;;;;;;5078849;28;19983;-81
2022/09/09 01:39:23;;;;;;;;;;;15.30;99.90;;;;;;5077690;28;19909;-80
2022/09/09 01:41:49;;;;;;;;;;;15.30;99.90;;;;;;5071975;28;19927;-79
2022/09/09 01:44:14;;;;;;;;;;;15.30;99.90;;;;;;5072856;28;19919;-79
2022/09/09 01:46:40;;;;;;;;;;;15.30;99.90;;;;;;5072052;28;20357;-78
2022/09/09 01:49:07;;;;;;;;;;;15.30;99.90;;;;;;5071420;28;20255;-79
2022/09/09 01:51:33;;;;;;;;;;;15.30;99.90;;;;;;5072067;28;20319;-78
2022/09/09 01:53:59;;;;;;;;;;;15.30;99.90;;;;;;5072827;28;19946;-79
2022/09/09 01:56:39;;;;;;;;;;;15.30;99.90;;;;;;5072381;28;19971;-80
2022/09/09 01:59:24;;;;;;;;;;;15.30;99.90;;;;;;5075465;28;19916;-81
2022/09/09 02:02:07;;;;;;;;;;;15.30;99.90;;;;;;5076160;28;19912;-80
2022/09/09 02:04:41;;;;;;;;;;;15.30;99.90;;;;;;5072333;28;19908;-79
2022/09/09 02:07:26;;;;;;;;;;;15.30;99.90;;;;;;5071504;28;20465;-78
2022/09/09 02:09:58;;;;;;;;;;;15.30;99.90;;;;;;5072508;28;19916;-76
2022/09/09 02:12:25;;;;;;;;;;;15.30;99.90;;;;;;5071827;28;19962;-76
2022/09/09 02:14:54;;;;;;;;;;;15.30;99.90;;;;;;5072426;28;20042;-75
2022/09/09 02:17:25;;;;;;;;;;;15.30;99.90;;;;;;5072405;28;19908;-76
2022/09/09 02:19:54;;;;;;;;;;;15.30;99.90;;;;;;5076624;28;19958;-77
2022/09/09 02:22:22;;;;;;;;;;;15.30;99.90;;;;;;5076369;28;20474;-77
2022/09/09 02:24:49;;;;;;;;;;;15.30;99.90;;;;;;5075877;28;19916;-76
2022/09/09 02:27:16;;;;;;;;;;;15.40;99.90;;;;;;5076267;28;20002;-76
2022/09/09 02:29:43;;;;;;;;;;;15.40;99.90;;;;;;5074439;28;20585;-76
2022/09/09 02:32:12;;;;;;;;;;;15.40;99.90;;;;;;5076110;28;19995;-76
2022/09/09 02:34:40;;;;;;;;;;;15.30;99.90;;;;;;5075622;28;19912;-77
2022/09/09 02:37:08;;;;;;;;;;;15.30;99.90;;;;;;5075776;28;20332;-77
2022/09/09 02:39:33;;;;;;;;;;;15.30;99.90;;;;;;5075671;28;19984;-77
2022/09/09 02:41:59;;;;;;;;;;;15.30;99.90;;;;;;5076217;28;20015;-77
2022/09/09 02:44:25;;;;;;;;;;;15.30;99.90;;;;;;5075488;28;20261;-75
2022/09/09 02:47:05;;;;;;;;;;;15.40;99.90;;;;;;5075731;28;19913;-75
2022/09/09 02:49:44;;;;;;;;;;;15.40;99.90;;;;;;5075443;28;19920;-76
2022/09/09 02:52:16;;;;;;;;;;;15.30;99.90;;;;;;5076312;28;19908;-75
2022/09/09 02:54:43;;;;;;;;;;;15.30;99.90;;;;;;5074092;28;20357;-75
2022/09/09 02:57:14;;;;;;;;;;;15.30;99.90;;;;;;5075280;28;19952;-77
2022/09/09 02:59:39;;;;;;;;;;;15.40;99.90;;;;;;5075058;28;19962;-80
2022/09/09 03:02:05;;;;;;;;;;;15.40;99.90;;;;;;5079714;28;19909;-83
2022/09/09 03:04:31;;;;;;;;;;;15.40;99.90;;;;;;5075975;28;19908;-82
2022/09/09 03:06:57;;;;;;;;;;;15.40;99.90;;;;;;5075303;28;19921;-85
2022/09/09 03:09:22;;;;;;;;;;;15.30;99.90;;;;;;5076889;28;20334;-85
2022/09/09 03:11:49;;;;;;;;;;;15.30;99.90;;;;;;5076725;28;19985;-84
2022/09/09 03:14:15;;;;;;;;;;;15.30;99.90;;;;;;5079447;28;19909;-81
2022/09/09 03:16:42;;;;;;;;;;;15.40;99.90;;;;;;5075797;28;19940;-78
2022/09/09 03:19:08;;;;;;;;;;;15.30;99.90;;;;;;5075232;28;20375;-77
2022/09/09 03:21:34;;;;;;;;;;;15.30;99.90;;;;;;5074757;28;20014;-76
2022/09/09 03:23:59;;;;;;;;;;;15.30;99.90;;;;;;5073671;28;19908;-76
2022/09/09 03:26:25;;;;;;;;;;;15.30;99.90;;;;;;5074886;28;20007;-77
2022/09/09 03:28:51;;;;;;;;;;;15.30;99.90;;;;;;5073741;28;19912;-82
2022/09/09 03:31:18;;;;;;;;;;;15.30;99.90;;;;;;5078930;28;19919;-82
2022/09/09 03:33:43;;;;;;;;;;;15.30;99.90;;;;;;5078465;28;19968;-83
2022/09/09 03:36:10;;;;;;;;;;;15.30;99.90;;;;;;5077641;28;19947;-81
2022/09/09 03:38:35;;;;;;;;;;;15.20;99.90;;;;;;5076281;28;19908;-84
2022/09/09 03:41:01;;;;;;;;;;;15.20;99.90;;;;;;5078611;28;19916;-83
2022/09/09 03:43:28;;;;;;;;;;;15.20;99.90;;;;;;5078371;28;19918;-80
2022/09/09 03:45:56;;;;;;;;;;;15.20;99.90;;;;;;5076969;28;19912;-82
2022/09/09 03:48:22;;;;;;;;;;;15.20;99.90;;;;;;5078357;28;19919;-83
2022/09/09 03:50:49;;;;;;;;;;;15.20;99.90;;;;;;5080422;28;19904;-82
2022/09/09 03:53:15;;;;;;;;;;;15.20;99.90;;;;;;5080332;28;19909;-82
2022/09/09 03:55:48;;;;;;;;;;;15.20;99.90;;;;;;5079339;28;19976;-82
2022/09/09 03:58:14;;;;;;;;;;;15.20;99.90;;;;;;5076575;28;19955;-83
2022/09/09 04:00:42;;;;;;;;;;;15.20;99.90;;;;;;5074517;28;20251;-84
2022/09/09 04:03:11;;;;;;;;;;;15.20;99.90;;;;;;5077918;28;19915;-82
2022/09/09 04:05:39;;;;;;;;;;;15.10;99.90;;;;;;5075398;28;19916;-83
2022/09/09 04:08:08;;;;;;;;;;;15.10;99.90;;;;;;5074578;28;20058;-83
2022/09/09 04:10:36;;;;;;;;;;;15.20;99.90;;;;;;5074899;28;19950;-83
2022/09/09 04:13:02;;;;;;;;;;;15.20;99.90;;;;;;5076542;28;20365;-82
2022/09/09 04:15:27;;;;;;;;;;;15.20;99.90;;;;;;5075563;28;19912;-81
2022/09/09 04:17:53;;;;;;;;;;;15.10;99.90;;;;;;5076113;28;19940;-82
2022/09/09 04:20:19;;;;;;;;;;;15.10;99.90;;;;;;5076403;28;19999;-84
2022/09/09 04:22:44;;;;;;;;;;;15.10;99.90;;;;;;5078063;28;20320;-81
2022/09/09 04:25:10;;;;;;;;;;;15.10;99.90;;;;;;5078920;28;20367;-81
2022/09/09 04:27:35;;;;;;;;;;;15.10;99.90;;;;;;5075802;28;20022;-81
2022/09/09 04:30:01;;;;;;;;;;;15.10;99.90;;;;;;5075954;28;19962;-81
2022/09/09 04:32:27;;;;;;;;;;;15.10;99.90;;;;;;5077460;28;19912;-81
2022/09/09 04:34:52;;;;;;;;;;;15.10;99.90;;;;;;5077854;28;19909;-82
2022/09/09 04:37:18;;;;;;;;;;;15.10;99.90;;;;;;5078455;28;19915;-83
2022/09/09 04:39:45;;;;;;;;;;;15.10;99.90;;;;;;5076364;28;19908;-82
2022/09/09 04:42:11;;;;;;;;;;;15.10;99.90;;;;;;5076025;28;19921;-82
2022/09/09 04:44:36;;;;;;;;;;;15.00;99.90;;;;;;5076124;28;20310;-80
2022/09/09 04:47:02;;;;;;;;;;;15.00;99.90;;;;;;5072957;28;20008;-80
2022/09/09 04:49:27;;;;;;;;;;;15.00;99.90;;;;;;5075054;28;19909;-81
2022/09/09 04:51:53;;;;;;;;;;;15.00;99.90;;;;;;5074187;28;19917;-80
2022/09/09 04:54:18;;;;;;;;;;;15.00;99.90;;;;;;5077018;28;19944;-80
2022/09/09 04:56:44;;;;;;;;;;;15.00;99.90;;;;;;5075014;28;19915;-80
2022/09/09 04:59:10;;;;;;;;;;;15.00;99.90;;;;;;5078173;28;19908;-79
2022/09/09 05:01:36;;;;;;;;;;;15.00;99.90;;;;;;5072101;28;20346;-78
2022/09/09 05:04:02;;;;;;;;;;;15.00;99.90;;;;;;5077894;28;20353;-81
2022/09/09 05:06:28;;;;;;;;;;;15.00;99.90;;;;;;5074823;28;19913;-80
2022/09/09 05:08:54;;;;;;;;;;;15.00;99.90;;;;;;5073838;28;20381;-80
2022/09/09 05:11:22;;;;;;;;;;;15.00;99.90;;;;;;5074031;28;19954;-80
2022/09/09 05:13:50;;;;;;;;;;;15.00;99.90;;;;;;5073359;28;20307;-81
2022/09/09 05:16:16;;;;;;;;;;;14.90;99.90;;;;;;5073403;28;19962;-79
2022/09/09 05:18:45;;;;;;;;;;;15.00;99.90;;;;;;5072550;28;19914;-81
2022/09/09 05:21:12;;;;;;;;;;;15.00;99.90;;;;;;5073120;28;19909;-82
2022/09/09 05:23:37;;;;;;;;;;;15.00;99.90;;;;;;5072537;28;19919;-83
2022/09/09 05:26:04;;;;;;;;;;;15.00;99.90;;;;;;5074931;28;19912;-81
2022/09/09 05:28:30;;;;;;;;;;;15.00;99.90;;;;;;5075297;28;19912;-79
2022/09/09 05:31:00;;;;;;;;;;;15.00;99.90;;;;;;5071013;28;19981;-77
2022/09/09 05:33:26;;;;;;;;;;;14.90;99.90;;;;;;5071696;28;19909;-76
2022/09/09 05:36:03;;;;;;;;;;;14.90;99.90;;;;;;5072280;28;19908;-76
2022/09/09 05:38:29;;;;;;;;;;;15.00;99.90;;;;;;5072936;28;19931;-76
2022/09/09 05:40:55;;;;;;;;;;;15.00;99.90;;;;;;5072004;28;20507;-76
2022/09/09 05:43:21;;;;;;;;;;;15.00;99.90;;;;;;5072911;28;19954;-76
2022/09/09 05:45:47;;;;;;;;;;;15.00;99.90;;;;;;5072985;28;19916;-80
2022/09/09 05:48:15;;;;;;;;;;;15.00;99.90;;;;;;5074878;28;19912;-80
2022/09/09 05:50:42;;;;;;;;;;;15.00;99.90;;;;;;5073503;28;19966;-80
2022/09/09 05:53:08;;;;;;;;;;;15.00;99.90;;;;;;5074257;28;20265;-80
2022/09/09 05:55:34;;;;;;;;;;;15.00;99.90;;;;;;5078108;28;19914;-79
2022/09/09 05:57:59;;;;;;;;;;;15.00;99.90;;;;;;5074941;28;19908;-78
2022/09/09 06:00:26;;;;;;;;;;;15.00;99.90;;;;;;5076882;28;19908;-78
2022/09/09 06:02:52;;;;;;;;;;;15.00;99.90;;;;;;5075223;28;19931;-78
2022/09/09 06:05:18;;;;;;;;;;;15.00;99.90;;;;;;5076815;28;19974;-77
2022/09/09 06:07:44;;;;;;;;;;;15.00;99.90;;;;;;5076360;28;19999;-78
2022/09/09 06:10:10;;;;;;;;;;;15.00;99.90;;;;;;5076090;28;19908;-77
2022/09/09 06:12:36;;;;;;;;;;;15.10;99.90;;;;;;5076016;28;19908;-77
2022/09/09 06:15:02;;;;;;;;;;;15.10;99.90;;;;;;5075769;28;19908;-77
2022/09/09 06:17:27;;;;;;;;;;;15.00;99.90;;;;;;5076267;28;20041;-76
2022/09/09 06:19:53;;;;;;;;;;;15.00;99.90;;;;;;5074170;28;19909;-77
2022/09/09 06:22:19;;;;;;;;;;;15.00;99.90;;;;;;5076113;28;19913;-75
2022/09/09 06:24:44;;;;;;;;;;;15.00;99.90;;;;;;5075597;28;19908;-77
2022/09/09 06:27:10;;;;;;;;;;;15.10;99.90;;;;;;5076010;28;20269;-76
2022/09/09 06:29:36;;;;;;;;;;;15.10;99.90;;;;;;5076084;28;19908;-76
2022/09/09 06:32:02;;;;;;;;;;;15.10;99.90;;;;;;5074356;28;19958;-76
2022/09/09 06:34:28;;;;;;;;;;;15.20;99.90;;;;;;5076054;28;20377;-76
2022/09/09 06:36:53;;;;;;;;;;;15.20;99.90;;;;;;5074097;28;19912;-77
2022/09/09 06:39:19;;;;;;;;;;;15.20;99.90;;;;;;5075798;28;20254;-76
2022/09/09 06:41:45;;;;;;;;;;;15.20;99.90;;;;;;5075247;28;19928;-76
2022/09/09 06:44:11;;;;;;;;;;;15.20;99.90;;;;;;5074685;28;20361;-75
2022/09/09 06:46:37;;;;;;;;;;;15.30;99.90;;;;;;5082892;28;19935;-75
2022/09/09 06:49:03;;;;;;;;;;;15.20;99.90;;;;;;5084142;28;19923;-75
2022/09/09 06:51:30;;;;;;;;;;;15.30;99.90;;;;;;5079598;28;19909;-76
2022/09/09 06:53:57;;;;;;;;;;;15.30;99.90;;;;;;5075126;28;19916;-77
2022/09/09 06:56:24;;;;;;;;;;;15.30;99.90;;;;;;5075836;28;19908;-77
2022/09/09 06:58:53;;;;;;;;;;;15.30;99.90;;;;;;5073654;28;20005;-76
2022/09/09 07:01:20;;;;;;;;;;;15.30;99.90;;;;;;5075179;28;19954;-77
2022/09/09 07:03:50;;;;;;;;;;;15.40;99.90;;;;;;5074466;28;20322;-77
2022/09/09 07:06:20;;;;;;;;;;;15.40;99.90;;;;;;5075296;28;19943;-76
2022/09/09 07:08:53;;;;;;;;;;;15.40;99.90;;;;;;5074695;28;20377;-77
2022/09/09 07:11:19;;;;;;;;;;;15.50;99.90;;;;;;5075331;28;20308;-76
2022/09/09 07:13:45;;;;;;;;;;;15.60;99.90;;;;;;5073432;28;20268;-76
2022/09/09 07:16:12;;;;;;;;;;;15.60;99.90;;;;;;5075370;28;19909;-76
2022/09/09 07:18:39;;;;;;;;;;;15.60;99.90;;;;;;5075292;28;19912;-76
2022/09/09 07:21:05;;;;;;;;;;;15.60;99.90;;;;;;5074862;28;19909;-77
2022/09/09 07:23:30;;;;;;;;;;;15.60;99.90;;;;;;5074967;28;19931;-76
2022/09/09 07:25:57;;;;;;;;;;;15.60;99.90;;;;;;5074512;28;20402;-76
2022/09/09 07:28:23;;;;;;;;;;;15.70;99.90;;;;;;5075039;28;19912;-77
2022/09/09 07:30:56;;;;;;;;;;;15.70;99.90;;;;;;5073432;28;19908;-76
2022/09/09 07:33:22;;;;;;;;;;;15.70;99.90;;;;;;5075332;28;19915;-78
2022/09/09 07:35:47;;;;;;;;;;;15.70;99.90;;;;;;5073177;28;20015;-74
2022/09/09 07:38:14;;;;;;;;;;;15.70;99.90;;;;;;5075802;28;19954;-77
2022/09/09 07:40:40;;;;;;;;;;;15.70;99.90;;;;;;5074525;28;19913;-79
2022/09/09 07:43:05;;;;;;;;;;;15.80;99.90;;;;;;5075981;28;20313;-76
2022/09/09 07:45:33;;;;;;;;;;;15.90;99.90;;;;;;5079986;28;19923;-78
2022/09/09 07:47:58;;;;;;;;;;;16.00;99.90;;;;;;5085576;28;19958;-78
2022/09/09 07:50:24;;;;;;;;;;;16.10;99.90;;;;;;5089644;28;20311;-77
2022/09/09 07:52:51;;;;;;;;;;;16.10;99.90;;;;;;5094070;28;19912;-77
2022/09/09 07:55:17;;;;;;;;;;;16.20;99.90;;;;;;5095144;28;19912;-78
2022/09/09 07:57:42;;;;;;;;;;;16.30;99.90;;;;;;5094825;28;19908;-76
2022/09/09 08:00:10;;;;;;;;;;;16.30;99.90;;;;;;5094028;28;20003;-78
2022/09/09 08:02:35;;;;;;;;;;;16.30;99.90;;;;;;5091234;28;19909;-77
2022/09/09 08:05:02;;;;;;;;;;;16.20;99.90;;;;;;5083773;28;20288;-78
2022/09/09 08:07:28;;;;;;;;;;;16.20;99.90;;;;;;5083302;28;20324;-77
2022/09/09 08:09:55;;;;;;;;;;;16.30;99.90;;;;;;5088233;28;19915;-77
2022/09/09 08:12:21;;;;;;;;;;;16.40;99.90;;;;;;5094526;28;19954;-77
2022/09/09 08:14:47;;;;;;;;;;;16.40;99.90;;;;;;5093459;28;20284;-76
2022/09/09 08:17:12;;;;;;;;;;;16.50;99.90;;;;;;5093606;28;19915;-75
2022/09/09 08:19:38;;;;;;;;;;;16.70;99.90;;;;;;5094314;28;20383;-75
2022/09/09 08:22:03;;;;;;;;;;;16.90;99.90;;;;;;5093895;28;20308;-75
2022/09/09 08:24:29;;;;;;;;;;;17.00;99.90;;;;;;5096026;28;19915;-76
2022/09/09 08:26:56;;;;;;;;;;;17.20;99.90;;;;;;5094939;28;19965;-75
2022/09/09 08:29:22;;;;;;;;;;;17.20;99.90;;;;;;5095200;28;19912;-76
2022/09/09 08:31:49;;;;;;;;;;;17.50;99.90;;;;;;5087638;28;19909;-77
2022/09/09 08:34:15;;;;;;;;;;;17.50;99.90;;;;;;5084264;28;19912;-76
2022/09/09 08:36:42;;;;;;;;;;;17.50;99.90;;;;;;5090923;28;19909;-74
2022/09/09 08:39:08;;;;;;;;;;;17.50;99.90;;;;;;5093190;28;19909;-75
2022/09/09 08:41:52;;;;;;;;;;;17.40;99.90;;;;;;5092189;28;19920;-76
2022/09/09 08:44:25;;;;;;;;;;;17.40;99.90;;;;;;5092575;28;19920;-75
2022/09/09 08:46:57;;;;;;;;;;;17.30;99.90;;;;;;5091563;28;19959;-76
2022/09/09 08:49:46;;;;;;;;;;;17.30;99.90;;;;;;5093694;28;19916;-76
2022/09/09 08:52:15;;;;;;;;;;;17.30;99.90;;;;;;5092603;28;19908;-74
2022/09/09 08:54:41;;;;;;;;;;;17.40;99.90;;;;;;5086596;28;19908;-75
2022/09/09 08:57:12;;;;;;;;;;;17.30;99.90;;;;;;5081830;28;19916;-75
2022/09/09 08:59:37;;;;;;;;;;;17.40;99.90;;;;;;5085972;28;19912;-76
2022/09/09 09:02:11;;;;;;;;;;;17.40;99.90;;;;;;5091159;28;19915;-75
2022/09/09 09:04:55;;;;;;;;;;;17.50;99.90;;;;;;5092080;28;19916;-75
2022/09/09 09:07:27;;;;;;;;;;;17.40;99.90;;;;;;5092623;28;20280;-75
2022/09/09 09:10:08;;;;;;;;;;;17.30;99.90;;;;;;5093132;28;19915;-74
2022/09/09 09:12:37;;;;;;;;;;;17.30;99.90;;;;;;5092150;28;19948;-74
2022/09/09 09:15:10;;;;;;;;;;;17.40;99.90;;;;;;5092490;28;20368;-73
2022/09/09 09:17:37;;;;;;;;;;;17.30;99.90;;;;;;5093660;28;19908;-73
2022/09/09 09:20:03;;;;;;;;;;;17.30;99.90;;;;;;5092780;28;19908;-73
2022/09/09 09:22:31;;;;;;;;;;;17.30;99.90;;;;;;5093215;28;19998;-73
2022/09/09 09:25:08;;;;;;;;;;;17.40;99.90;;;;;;5091190;28;20011;-75
2022/09/09 09:27:43;;;;;;;;;;;17.40;99.90;;;;;;5093025;28;19926;-75
2022/09/09 09:30:18;;;;;;;;;;;17.50;99.90;;;;;;5089481;28;19905;-76
2022/09/09 09:32:51;;;;;;;;;;;17.50;99.90;;;;;;5081222;28;19912;-74
2022/09/09 09:35:17;;;;;;;;;;;17.60;99.90;;;;;;5079942;28;20368;-74
2022/09/09 09:37:46;;;;;;;;;;;17.60;99.90;;;;;;5071652;28;19962;-74
2022/09/09 09:40:13;;;;;;;;;;;17.70;99.90;;;;;;5083080;28;19912;-74
2022/09/09 09:42:48;;;;;;;;;;;17.80;99.90;;;;;;5082652;28;19921;-74
2022/09/09 09:45:32;;;;;;;;;;;17.90;99.90;;;;;;5052057;28;19982;-74
2022/09/09 09:47:59;;;;;;;;;;;17.90;99.90;;;;;;5084222;28;20270;-75
2022/09/09 09:50:24;;;;;;;;;;;17.80;99.90;;;;;;5085094;28;20293;-75
2022/09/09 09:52:55;;;;;;;;;;;17.80;99.90;;;;;;5052643;28;20038;-75
2022/09/09 09:55:20;;;;;;;;;;;17.90;99.90;;;;;;5052484;28;19909;-75
2022/09/09 09:57:46;;;;;;;;;;;17.90;99.90;;;;;;5052053;28;20278;-75
2022/09/09 10:00:14;;;;;;;;;;;18.00;99.90;;;;;;5056922;28;19909;-75
2022/09/09 10:02:43;;;;;;;;;;;18.00;99.90;;;;;;5051180;28;19909;-75
2022/09/09 10:05:28;;;;;;;;;;;17.90;99.90;;;;;;5050555;28;19909;-76
2022/09/09 10:08:02;;;;;;;;;;;18.00;99.90;;;;;;5051485;28;19912;-76
2022/09/09 10:10:42;;;;;;;;;;;18.00;99.90;;;;;;5052668;28;19921;-76
2022/09/09 10:13:10;;;;;;;;;;;18.00;99.90;;;;;;5052155;28;20021;-76
2022/09/09 10:15:54;;;;;;;;;;;18.00;99.90;;;;;;5052819;28;19909;-75
2022/09/09 10:18:36;;;;;;;;;;;18.00;99.90;;;;;;5052759;28;19916;-76
2022/09/09 10:21:05;;;;;;;;;;;18.00;99.90;;;;;;5051780;28;19916;-75
2022/09/09 10:23:49;;;;;;;;;;;18.10;99.90;;;;;;5051257;28;20007;-75
2022/09/09 10:26:28;;;;;;;;;;;18.10;99.90;;;;;;5051472;28;19917;-76
2022/09/09 10:29:05;;;;;;;;;;;18.30;99.90;;;;;;5052441;28;20341;-76
2022/09/09 10:31:45;;;;;;;;;;;18.40;99.90;;;;;;5051989;28;20285;-76
2022/09/09 10:34:37;;;;;;;;;;;18.60;99.90;;;;;;5050712;28;19959;-76
2022/09/09 10:37:08;;;;;;;;;;;18.70;99.90;;;;;;5050372;28;19915;-75
2022/09/09 10:39:36;;;;;;;;;;;18.90;99.90;;;;;;5052851;28;20380;-76
2022/09/09 10:42:05;;;;;;;;;;;19.00;99.90;;;;;;5055229;28;19999;-76
2022/09/09 10:44:51;;;;;;;;;;;18.90;99.90;;;;;;5055989;28;19913;-75
2022/09/09 10:47:17;;;;;;;;;;;18.80;99.90;;;;;;5050859;28;20002;-74
2022/09/09 10:49:42;;;;;;;;;;;18.70;99.90;;;;;;5055680;28;19909;-74
2022/09/09 10:52:19;;;;;;;;;;;18.60;99.90;;;;;;5055240;28;19909;-74
2022/09/09 10:54:53;;;;;;;;;;;18.70;99.90;;;;;;5056028;28;19909;-73
2022/09/09 10:57:31;;;;;;;;;;;18.60;99.90;;;;;;5055114;28;19908;-74
2022/09/09 10:59:59;;;;;;;;;;;18.70;99.90;;;;;;5055108;28;19955;-74
2022/09/09 11:02:29;;;;;;;;;;;18.60;99.90;;;;;;5070940;28;19909;-74
2022/09/09 11:05:07;;;;;;;;;;;18.70;99.90;;;;;;5055033;28;19909;-75
2022/09/09 11:07:33;;;;;;;;;;;18.70;99.90;;;;;;5055458;28;19920;-76
2022/09/09 11:10:06;;;;;;;;;;;18.60;99.90;;;;;;5054381;28;19909;-75
2022/09/09 11:12:34;;;;;;;;;;;18.60;99.90;;;;;;5055071;28;19996;-75
2022/09/09 11:15:05;;;;;;;;;;;18.50;99.90;;;;;;5054814;28;19913;-75
2022/09/09 11:17:35;;;;;;;;;;;18.50;99.90;;;;;;5055394;28;19908;-75
2022/09/09 11:20:01;;;;;;;;;;;18.40;99.90;;;;;;5054667;28;19946;-74
2022/09/09 11:22:33;;;;;;;;;;;18.40;99.90;;;;;;5054914;28;20013;-73
2022/09/09 11:25:08;;;;;;;;;;;18.30;99.90;;;;;;5054563;28;19916;-75
2022/09/09 11:27:39;;;;;;;;;;;18.40;99.90;;;;;;5054586;28;19913;-75
2022/09/09 11:30:22;;;;;;;;;;;18.30;99.90;;;;;;5054113;28;20384;-75
2022/09/09 11:32:57;;;;;;;;;;;18.30;99.90;;;;;;5054150;28;19958;-80
2022/09/09 11:35:40;;;;;;;;;;;18.20;99.90;;;;;;5073212;28;19957;-78
2022/09/09 11:38:24;;;;;;;;;;;18.10;99.90;;;;;;5084067;28;19916;-76
2022/09/09 11:40:59;;;;;;;;;;;18.20;99.90;;;;;;5082827;28;19908;-75
2022/09/09 11:43:41;;;;;;;;;;;18.30;99.90;;;;;;5085174;28;19924;-75
2022/09/09 11:46:08;;;;;;;;;;;18.40;99.90;;;;;;5053367;28;19920;-73
2022/09/09 11:48:34;;;;;;;;;;;18.60;99.90;;;;;;5054172;28;19944;-75
2022/09/09 11:51:02;;;;;;;;;;;18.70;99.90;;;;;;5053384;28;19951;-75
2022/09/09 11:53:28;;;;;;;;;;;18.60;99.90;;;;;;5054018;28;19917;-74
2022/09/09 11:56:09;;;;;;;;;;;18.70;99.90;;;;;;5053904;28;19908;-73
2022/09/09 11:58:40;;;;;;;;;;;18.70;99.90;;;;;;5053930;28;19962;-74
2022/09/09 12:01:25;;;;;;;;;;;18.70;99.90;;;;;;5077565;28;20011;-74
2022/09/09 12:03:55;;;;;;;;;;;18.80;99.90;;;;;;5085024;28;19919;-75
2022/09/09 12:06:33;;;;;;;;;;;18.90;99.90;;;;;;5074161;28;20011;-74
2022/09/09 12:09:12;;;;;;;;;;;18.90;99.90;;;;;;5073956;28;19909;-76
2022/09/09 12:11:37;;;;;;;;;;;19.00;99.90;;;;;;5073687;28;19913;-76
2022/09/09 12:14:03;;;;;;;;;;;19.00;99.90;;;;;;5083518;28;19913;-75
2022/09/09 12:16:32;;;;;;;;;;;19.00;99.90;;;;;;5085774;28;19915;-74
2022/09/09 12:19:04;;;;;;;;;;;19.00;99.90;;;;;;5073844;28;19916;-74
2022/09/09 12:21:40;;;;;;;;;;;19.10;99.90;;;;;;5073687;28;19909;-75
2022/09/09 12:24:15;;;;;;;;;;;19.20;99.90;;;;;;5072673;28;19908;-74
2022/09/09 12:26:48;;;;;;;;;;;19.30;99.90;;;;;;5073223;28;19919;-74
2022/09/09 12:29:26;;;;;;;;;;;19.30;99.90;;;;;;5072731;28;20283;-75
2022/09/09 12:31:58;;;;;;;;;;;19.30;99.90;;;;;;5073390;28;19915;-75
2022/09/09 12:34:24;;;;;;;;;;;19.20;99.90;;;;;;5072908;28;19912;-75
2022/09/09 12:36:59;;;;;;;;;;;19.10;99.90;;;;;;5073032;28;19909;-75
2022/09/09 12:39:31;;;;;;;;;;;18.90;99.90;;;;;;5071507;28;19959;-75
2022/09/09 12:41:57;;;;;;;;;;;18.80;99.90;;;;;;5073045;28;19927;-75
2022/09/09 12:44:24;;;;;;;;;;;18.70;99.90;;;;;;5071257;28;19924;-75
2022/09/09 12:46:51;;;;;;;;;;;18.80;99.90;;;;;;5073031;28;20344;-75
2022/09/09 12:49:38;;;;;;;;;;;18.80;99.90;;;;;;5070940;28;21192;-75
2022/09/09 12:52:07;;;;;;;;;;;18.80;99.90;;;;;;5072379;28;19909;-76
2022/09/09 12:54:36;;;;;;;;;;;19.00;99.90;;;;;;5073033;28;19966;-76
2022/09/09 12:57:01;;;;;;;;;;;19.10;99.90;;;;;;5072086;28;20270;-76
2022/09/09 12:59:35;;;;;;;;;;;19.20;99.90;;;;;;5072681;28;19966;-75
2022/09/09 13:02:01;;;;;;;;;;;19.20;99.90;;;;;;5071675;28;19962;-76
2022/09/09 13:04:26;;;;;;;;;;;19.30;99.90;;;;;;5072540;28;19914;-75
2022/09/09 13:06:52;;;;;;;;;;;19.30;99.90;;;;;;5072329;28;20404;-75
2022/09/09 13:09:19;;;;;;;;;;;19.40;99.90;;;;;;5079990;28;20439;-75
2022/09/09 13:11:48;;;;;;;;;;;19.40;99.90;;;;;;5081702;28;19913;-76
2022/09/09 13:14:28;;;;;;;;;;;19.40;99.90;;;;;;5081463;28;19909;-75
2022/09/09 13:16:55;;;;;;;;;;;19.40;99.90;;;;;;5082569;28;19913;-76
2022/09/09 13:19:21;;;;;;;;;;;19.40;99.90;;;;;;5090405;28;19915;-75
2022/09/09 13:21:47;;;;;;;;;;;19.40;99.90;;;;;;5079757;28;19999;-76
2022/09/09 13:24:39;;;;;;;;;;;19.40;99.90;;;;;;5081266;28;20041;-75
2022/09/09 13:27:19;;;;;;;;;;;19.40;99.90;;;;;;5088857;28;19912;-76
2022/09/09 13:29:51;;;;;;;;;;;19.40;99.90;;;;;;5095525;28;19916;-75
2022/09/09 13:32:17;;;;;;;;;;;19.40;99.90;;;;;;5083977;28;19999;-75
2022/09/09 13:34:51;;;;;;;;;;;19.50;99.90;;;;;;5083236;28;19908;-75
2022/09/09 13:37:23;;;;;;;;;;;19.40;99.90;;;;;;5080204;28;19915;-76
2022/09/09 13:39:55;;;;;;;;;;;19.30;99.90;;;;;;5079805;28;19909;-75
2022/09/09 13:42:28;;;;;;;;;;;19.30;99.90;;;;;;5083514;28;19982;-75
2022/09/09 13:44:55;;;;;;;;;;;19.10;99.90;;;;;;5092893;28;19912;-75
2022/09/09 13:47:23;;;;;;;;;;;19.10;99.90;;;;;;5091111;28;19930;-75
2022/09/09 13:49:49;;;;;;;;;;;19.00;99.90;;;;;;5092467;28;19916;-74
2022/09/09 13:52:18;;;;;;;;;;;19.00;99.90;;;;;;5092210;28;19923;-75
2022/09/09 13:54:50;;;;;;;;;;;19.10;99.90;;;;;;5093082;28;19993;-75
2022/09/09 13:57:18;;;;;;;;;;;19.20;99.90;;;;;;5092200;28;19961;-75
2022/09/09 13:59:44;;;;;;;;;;;19.30;99.90;;;;;;5092918;28;19909;-75
2022/09/09 14:02:09;;;;;;;;;;;19.20;99.90;;;;;;5092064;28;19909;-75
2022/09/09 14:04:35;;;;;;;;;;;19.20;99.90;;;;;;5092696;28;19912;-75
2022/09/09 14:07:01;;;;;;;;;;;19.10;99.90;;;;;;5091288;28;20019;-74
2022/09/09 14:09:27;;;;;;;;;;;19.00;99.90;;;;;;5092351;28;19986;-75
2022/09/09 14:11:53;;;;;;;;;;;18.90;99.90;;;;;;5092483;28;19908;-76
2022/09/09 14:14:18;;;;;;;;;;;18.70;99.90;;;;;;5092660;28;19915;-76
2022/09/09 14:16:44;;;;;;;;;;;18.50;99.90;;;;;;5096644;28;20341;-76
2022/09/09 14:19:09;;;;;;;;;;;18.40;99.90;;;;;;5096202;28;19908;-76
2022/09/09 14:21:35;;;;;;;;;;;18.30;99.90;;;;;;5096367;28;19960;-75
2022/09/09 14:24:01;;;;;;;;;;;18.10;99.90;;;;;;5096635;28;19953;-76
2022/09/09 14:26:28;;;;;;;;;;;18.10;99.90;;;;;;5095888;28;19916;-76
2022/09/09 14:28:54;;;;;;;;;;;18.10;99.90;;;;;;5096480;28;19938;-76
2022/09/09 14:31:20;;;;;;;;;;;18.10;99.90;;;;;;5095880;28;19935;-76